createdAt,value
2017-06-17T00:11:04.000Z,67.6
2017-06-17T00:27:45.000Z,68.4
2017-06-17T00:44:25.000Z,68.8
2017-06-17T01:01:07.000Z,68.8
2017-06-17T01:17:48.000Z,68.8
2017-06-17T01:34:30.000Z,68.8
2017-06-17T01:51:11.000Z,68.8
2017-06-17T02:07:53.000Z,68.8
2017-06-17T02:24:34.000Z,68.4
2017-06-17T02:41:17.000Z,68.4
2017-06-17T02:57:58.000Z,68.4
2017-06-17T03:14:39.000Z,68.4
2017-06-17T03:31:21.000Z,68
2017-06-17T03:48:02.000Z,68
2017-06-17T04:04:44.000Z,67.6
2017-06-17T04:21:26.000Z,67.2
2017-06-17T04:38:08.000Z,67.2
2017-06-17T04:54:51.000Z,67.6
2017-06-17T05:11:33.000Z,67.6
2017-06-17T05:28:16.000Z,68
2017-06-17T05:44:58.000Z,67.6
2017-06-17T06:01:41.000Z,68
2017-06-17T06:18:23.000Z,67.6
2017-06-17T06:35:07.000Z,67.6
2017-06-17T06:51:51.000Z,67.6
2017-06-17T07:08:34.000Z,68.4
2017-06-17T07:25:18.000Z,68.4
2017-06-17T07:42:02.000Z,68.8
2017-06-17T07:58:46.000Z,68.8
2017-06-17T08:08:49.000Z,68.4
2017-06-17T08:25:33.000Z,68
2017-06-17T08:42:18.000Z,67.2
2017-06-17T08:52:21.000Z,67.2
2017-06-17T09:09:07.000Z,66
2017-06-17T09:25:53.000Z,65.6
2017-06-17T09:42:39.000Z,65.2
2017-06-17T09:59:25.000Z,65.2
2017-06-17T10:12:51.000Z,65.2
2017-06-17T10:29:36.000Z,65.6
2017-06-17T10:39:40.000Z,64.8
2017-06-17T10:53:06.000Z,64
2017-06-17T11:09:53.000Z,64.8
2017-06-17T11:26:41.000Z,65.2
2017-06-17T11:40:06.000Z,65.6
2017-06-17T11:56:54.000Z,64.8
2017-06-17T12:13:41.000Z,64.8
2017-06-17T12:23:46.000Z,64.8
2017-06-17T12:27:08.000Z,64
2017-06-17T12:43:56.000Z,62.8
2017-06-17T12:57:23.000Z,62
2017-06-17T13:14:13.000Z,61.6
2017-06-17T13:20:56.000Z,62
2017-06-17T13:37:45.000Z,62.4
2017-06-17T13:47:50.000Z,61.6
2017-06-17T14:04:39.000Z,60.8
2017-06-17T14:21:29.000Z,61.2
2017-06-17T14:38:18.000Z,61.6
2017-06-17T14:55:06.000Z,62.4
2017-06-17T15:11:55.000Z,62.4
2017-06-17T15:28:44.000Z,63.2
2017-06-17T15:45:32.000Z,63.2
2017-06-17T16:02:21.000Z,63.2
2017-06-17T16:19:09.000Z,64
2017-06-17T16:35:58.000Z,63.6
2017-06-17T17:09:35.000Z,64.4
2017-06-17T17:26:23.000Z,65.2
2017-06-17T17:43:11.000Z,65.2
2017-06-17T17:59:59.000Z,65.6
2017-06-17T18:16:46.000Z,66.4
2017-06-17T18:33:35.000Z,66.8
2017-06-17T18:50:22.000Z,66.8
2017-06-17T19:07:09.000Z,67.2
2017-06-17T19:23:56.000Z,67.6
2017-06-17T19:40:43.000Z,68
2017-06-17T19:57:31.000Z,68.4
2017-06-17T20:14:18.000Z,68.8
2017-06-17T20:31:05.000Z,68.8
2017-06-17T20:47:51.000Z,69.6
2017-06-17T21:04:38.000Z,70.4
2017-06-17T21:21:24.000Z,70.8
2017-06-17T21:38:10.000Z,72
2017-06-17T21:54:56.000Z,72.8
2017-06-17T22:11:42.000Z,73.6
2017-06-17T22:28:26.000Z,74
2017-06-17T22:45:11.000Z,74.8
2017-06-17T23:01:56.000Z,75.6
2017-06-17T23:18:40.000Z,76
2017-06-17T23:35:25.000Z,76.8
2017-06-17T23:52:09.000Z,77.2
